createdAt,value
2023-05-19T00:01:37.631Z,547.10
2023-05-19T00:04:07.028Z,573.22
2023-05-19T00:06:36.402Z,569.92
2023-05-19T00:09:07.943Z,545.90
2023-05-19T00:11:38.276Z,496.95
2023-05-19T00:14:09.453Z,513.00
2023-05-19T00:16:39.075Z,528.15
2023-05-19T00:19:10.146Z,523.83
2023-05-19T00:21:39.383Z,653.03
2023-05-19T00:24:09.556Z,548.67
2023-05-19T00:26:38.022Z,670.78
2023-05-19T00:29:06.558Z,584.65
2023-05-19T00:31:35.087Z,600.25
2023-05-19T00:34:03.555Z,577.08
2023-05-19T00:36:32.055Z,605.40
2023-05-19T00:39:00.441Z,592.28
2023-05-19T00:41:31.296Z,559.95
2023-05-19T00:43:59.891Z,642.40
2023-05-19T00:46:28.368Z,571.33
2023-05-19T00:48:56.806Z,592.33
2023-05-19T00:51:26.281Z,557.40
2023-05-19T00:53:55.482Z,604.08
2023-05-19T00:56:24.606Z,581.67
2023-05-19T00:58:54.623Z,687.08
2023-05-19T01:01:23.693Z,661.92
2023-05-19T01:03:52.536Z,690.05
2023-05-19T01:06:22.171Z,617.08
2023-05-19T01:08:50.747Z,604.80
2023-05-19T01:11:19.193Z,660.60
2023-05-19T01:13:47.870Z,691.70
2023-05-19T01:16:23.355Z,608.38
2023-05-19T01:18:57.649Z,571.97
2023-05-19T01:21:56.718Z,589.00
2023-05-19T01:24:46.997Z,613.05
2023-05-19T01:27:38.482Z,638.55
2023-05-19T01:30:30.069Z,598.35
2023-05-19T01:33:01.110Z,586.95
2023-05-19T01:35:30.417Z,581.90
2023-05-19T01:38:00.130Z,614.97
2023-05-19T01:40:29.552Z,535.10
2023-05-19T01:43:00.245Z,573.35
2023-05-19T01:45:32.044Z,672.13
2023-05-19T01:48:03.495Z,551.65
2023-05-19T01:50:33.303Z,607.83
2023-05-19T01:53:02.385Z,539.63
2023-05-19T01:55:31.064Z,568.42
2023-05-19T01:58:08.660Z,684.30
2023-05-19T02:00:48.035Z,595.45
2023-05-19T02:03:29.918Z,577.90
2023-05-19T02:06:04.693Z,568.33
2023-05-19T02:08:39.181Z,554.17
2023-05-19T02:13:39.620Z,635.25
2023-05-19T02:16:10.146Z,610.60
2023-05-19T02:18:38.624Z,609.00
2023-05-19T02:21:07.408Z,590.60
2023-05-19T02:23:35.908Z,615.65
2023-05-19T02:26:04.400Z,625.15
2023-05-19T02:28:32.834Z,647.80
2023-05-19T02:31:01.346Z,637.75
2023-05-19T02:33:31.520Z,591.35
2023-05-19T02:35:59.918Z,619.28
2023-05-19T02:38:28.356Z,645.55
2023-05-19T02:40:59.360Z,645.83
2023-05-19T02:43:30.509Z,601.45
2023-05-19T02:45:59.050Z,630.15
2023-05-19T02:48:27.525Z,608.45
2023-05-19T02:50:57.323Z,700.28
2023-05-19T02:53:25.697Z,605.42
2023-05-19T02:55:54.146Z,639.15
2023-05-19T02:58:22.977Z,642.28
2023-05-19T03:00:51.524Z,608.53
2023-05-19T03:03:20.150Z,615.13
2023-05-19T03:05:48.740Z,662.90
2023-05-19T03:08:19.657Z,589.30
2023-05-19T03:10:49.070Z,658.85
2023-05-19T03:13:17.917Z,723.65
2023-05-19T03:15:46.355Z,633.53
2023-05-19T03:18:14.804Z,644.75
2023-05-19T03:20:44.701Z,701.95
2023-05-19T03:23:13.097Z,668.78
2023-05-19T03:25:42.931Z,611.03
2023-05-19T03:28:11.493Z,656.97
2023-05-19T03:30:40.006Z,621.28
2023-05-19T03:33:08.482Z,622.55
2023-05-19T03:35:37.299Z,684.70
2023-05-19T03:38:05.681Z,710.00
2023-05-19T03:40:34.384Z,699.50
2023-05-19T03:43:04.321Z,659.47
2023-05-19T03:45:32.754Z,681.05
2023-05-19T03:48:01.151Z,698.90
2023-05-19T03:50:31.893Z,674.72
2023-05-19T03:53:00.579Z,649.33
2023-05-19T03:55:30.601Z,648.10
2023-05-19T03:57:58.986Z,692.13
2023-05-19T04:00:28.860Z,653.33
2023-05-19T04:02:57.406Z,694.30
2023-05-19T04:05:26.143Z,698.42
2023-05-19T04:07:54.550Z,706.63
2023-05-19T04:10:23.012Z,694.67
2023-05-19T04:12:51.436Z,701.83
2023-05-19T04:15:19.923Z,694.00
2023-05-19T04:17:50.024Z,700.20
2023-05-19T04:20:18.441Z,704.75
2023-05-19T04:22:47.075Z,700.63
2023-05-19T04:25:15.549Z,700.13
2023-05-19T04:27:43.956Z,714.45
2023-05-19T04:30:13.069Z,634.28
2023-05-19T04:32:41.565Z,697.40
2023-05-19T04:35:13.651Z,649.28
2023-05-19T04:37:45.879Z,666.05
2023-05-19T04:40:14.596Z,679.85
2023-05-19T04:42:45.804Z,707.53
2023-05-19T04:45:14.894Z,602.60
2023-05-19T04:47:44.346Z,618.53
2023-05-19T04:50:14.541Z,607.03
2023-05-19T04:52:45.535Z,728.70
2023-05-19T04:55:14.045Z,621.33
2023-05-19T04:57:42.804Z,577.65
2023-05-19T05:00:14.395Z,769.15
2023-05-19T05:02:43.514Z,611.80
2023-05-19T05:05:13.435Z,614.38
2023-05-19T05:07:41.805Z,559.78
2023-05-19T05:10:11.699Z,597.60
2023-05-19T05:12:40.707Z,601.30
2023-05-19T05:15:10.417Z,537.13
2023-05-19T05:17:39.298Z,569.67
2023-05-19T05:20:08.973Z,590.97
2023-05-19T05:22:39.684Z,574.63
2023-05-19T05:25:09.468Z,594.30
2023-05-19T05:27:37.852Z,568.65
2023-05-19T05:30:07.341Z,589.85
2023-05-19T05:32:36.031Z,584.35
2023-05-19T05:35:04.784Z,558.05
2023-05-19T05:37:33.225Z,702.75
2023-05-19T05:40:03.873Z,612.13
2023-05-19T05:42:32.289Z,545.30
2023-05-19T05:45:00.690Z,577.15
2023-05-19T05:47:29.702Z,590.22
2023-05-19T05:49:58.695Z,586.58
2023-05-19T05:52:32.162Z,612.33
2023-05-19T05:55:02.629Z,584.63
2023-05-19T05:57:31.565Z,570.97
2023-05-19T06:00:00.098Z,586.75
2023-05-19T06:02:28.710Z,549.00
2023-05-19T06:05:00.664Z,592.30
2023-05-19T06:07:29.287Z,559.58
2023-05-19T06:09:57.739Z,552.83
2023-05-19T06:12:27.500Z,536.65
2023-05-19T06:14:56.250Z,520.17
2023-05-19T06:17:24.862Z,503.08
2023-05-19T06:19:53.460Z,552.03
2023-05-19T06:22:22.094Z,503.90
2023-05-19T06:24:50.514Z,505.42
2023-05-19T06:27:19.094Z,493.23
2023-05-19T06:29:48.919Z,513.88
2023-05-19T06:32:17.556Z,527.70
2023-05-19T06:34:46.172Z,557.53
2023-05-19T06:37:17.078Z,601.53
2023-05-19T06:39:45.536Z,543.97
2023-05-19T06:42:14.150Z,655.13
2023-05-19T06:44:42.599Z,603.53
2023-05-19T06:47:12.562Z,676.20
2023-05-19T06:49:41.651Z,672.00
2023-05-19T06:52:14.234Z,678.53
2023-05-19T06:54:43.157Z,694.10
2023-05-19T06:57:11.655Z,727.67
2023-05-19T06:59:40.955Z,687.17
2023-05-19T07:02:11.063Z,621.63
2023-05-19T07:04:39.929Z,650.47
2023-05-19T07:07:08.971Z,683.17
2023-05-19T07:09:37.391Z,743.42
2023-05-19T07:12:06.416Z,672.30
2023-05-19T07:14:36.430Z,651.85
2023-05-19T07:17:05.223Z,653.92
2023-05-19T07:19:35.050Z,686.15
2023-05-19T07:22:03.531Z,811.83
2023-05-19T07:24:34.297Z,677.58
2023-05-19T07:27:02.806Z,674.45
2023-05-19T07:29:35.520Z,657.40
2023-05-19T07:32:04.007Z,649.40
2023-05-19T07:34:33.910Z,640.95
2023-05-19T07:37:03.376Z,709.65
2023-05-19T07:39:32.400Z,737.90
2023-05-19T07:42:00.953Z,616.85
2023-05-19T07:44:31.476Z,639.47
2023-05-19T07:47:00.222Z,671.92
2023-05-19T07:49:29.424Z,633.13
2023-05-19T07:51:59.535Z,657.42
2023-05-19T07:54:28.018Z,669.08
2023-05-19T07:56:56.517Z,615.03
2023-05-19T07:59:25.365Z,780.83
2023-05-19T08:01:53.817Z,659.17
2023-05-19T08:04:22.223Z,651.47
2023-05-19T08:06:52.285Z,755.10
2023-05-19T08:09:22.242Z,642.90
2023-05-19T08:11:50.985Z,672.38
2023-05-19T08:14:20.446Z,710.60
2023-05-19T08:16:48.887Z,643.20
2023-05-19T08:19:17.431Z,673.60
2023-05-19T08:21:46.028Z,609.35
2023-05-19T08:24:14.610Z,663.58
2023-05-19T08:26:45.580Z,672.80
2023-05-19T08:29:20.605Z,697.92
2023-05-19T08:31:49.547Z,653.85
2023-05-19T08:34:18.114Z,619.78
2023-05-19T08:36:47.676Z,652.33
2023-05-19T08:39:17.611Z,681.28
2023-05-19T08:41:47.737Z,667.15
2023-05-19T08:44:18.281Z,615.00
2023-05-19T08:46:48.640Z,615.95
2023-05-19T08:49:22.196Z,599.00
2023-05-19T08:54:22.608Z,593.10
2023-05-19T08:56:52.566Z,618.95
2023-05-19T08:59:22.180Z,702.67
2023-05-19T09:01:51.187Z,680.00
2023-05-19T09:04:20.159Z,681.88
2023-05-19T09:06:50.325Z,824.65
2023-05-19T09:09:22.234Z,630.15
2023-05-19T09:11:52.185Z,661.05
2023-05-19T09:14:20.868Z,667.55
2023-05-19T09:16:51.133Z,653.97
2023-05-19T09:19:20.990Z,671.13
2023-05-19T09:22:00.977Z,612.05
2023-05-19T09:24:30.329Z,643.03
2023-05-19T09:27:00.708Z,695.40
2023-05-19T09:29:29.351Z,751.95
2023-05-19T09:32:01.008Z,656.75
2023-05-19T09:34:29.882Z,680.13
2023-05-19T09:36:59.746Z,643.75
2023-05-19T09:39:28.999Z,703.25
2023-05-19T09:41:59.511Z,675.67
2023-05-19T09:44:29.530Z,736.50
2023-05-19T09:47:00.979Z,659.85
2023-05-19T09:49:31.481Z,647.70
2023-05-19T09:52:01.134Z,671.22
2023-05-19T09:54:31.241Z,681.28
2023-05-19T09:57:08.547Z,760.28
2023-05-19T09:59:38.962Z,803.08
2023-05-19T10:02:08.223Z,692.15
2023-05-19T10:04:36.980Z,654.97
2023-05-19T10:07:06.368Z,740.90
2023-05-19T10:09:35.863Z,671.67
2023-05-19T10:12:06.401Z,701.53
2023-05-19T10:14:34.867Z,656.38
2023-05-19T10:17:03.335Z,620.15
2023-05-19T10:19:31.826Z,660.03
2023-05-19T10:22:00.338Z,730.75
2023-05-19T10:24:28.793Z,669.47
2023-05-19T10:27:02.592Z,695.63
2023-05-19T10:29:34.599Z,649.85
2023-05-19T10:32:06.327Z,691.92
2023-05-19T10:35:13.052Z,686.63
2023-05-19T10:37:47.722Z,673.53
2023-05-19T10:40:23.193Z,859.40
2023-05-19T10:43:04.058Z,657.50
2023-05-19T10:45:37.732Z,759.38
2023-05-19T10:48:06.550Z,637.30
2023-05-19T10:50:38.722Z,648.95
2023-05-19T10:53:08.525Z,660.47
2023-05-19T10:55:59.026Z,713.20
2023-05-19T10:58:51.762Z,662.05
2023-05-19T11:01:32.473Z,778.38
2023-05-19T11:04:07.264Z,718.03
2023-05-19T11:06:48.400Z,629.47
2023-05-19T11:09:22.588Z,660.95
2023-05-19T11:11:57.435Z,663.65
2023-05-19T11:14:28.398Z,678.60
2023-05-19T11:17:00.967Z,735.42
2023-05-19T11:19:32.151Z,701.38
2023-05-19T11:22:11.035Z,680.55
2023-05-19T11:24:40.974Z,669.88
2023-05-19T11:27:26.107Z,750.55
2023-05-19T11:29:55.696Z,674.22
2023-05-19T11:32:29.045Z,649.40
2023-05-19T11:34:58.159Z,728.85
2023-05-19T11:37:26.761Z,638.50
2023-05-19T11:39:55.164Z,671.00
2023-05-19T11:42:23.708Z,736.85
2023-05-19T11:44:52.226Z,663.03
2023-05-19T11:47:21.469Z,650.47
2023-05-19T11:49:51.948Z,633.17
2023-05-19T11:52:23.313Z,811.80
2023-05-19T11:54:55.494Z,717.25
2023-05-19T11:57:23.940Z,658.00
2023-05-19T11:59:53.693Z,659.33
2023-05-19T12:02:24.862Z,647.70
2023-05-19T12:05:02.599Z,662.33
2023-05-19T12:07:31.030Z,678.65
2023-05-19T12:10:02.758Z,668.50
2023-05-19T12:12:32.061Z,729.22
2023-05-19T12:15:00.496Z,632.20
2023-05-19T12:17:29.736Z,687.97
2023-05-19T12:20:05.174Z,656.58
2023-05-19T12:22:35.367Z,835.30
2023-05-19T12:25:05.230Z,664.17
2023-05-19T12:27:38.448Z,708.47
2023-05-19T12:30:08.348Z,722.60
2023-05-19T12:32:37.154Z,642.13
2023-05-19T12:35:08.174Z,644.60
2023-05-19T12:37:36.659Z,630.92
2023-05-19T12:40:07.158Z,674.85
2023-05-19T12:42:35.883Z,648.28
2023-05-19T12:45:06.131Z,672.17
2023-05-19T12:47:35.889Z,656.50
2023-05-19T12:50:09.244Z,719.35
2023-05-19T12:52:45.254Z,681.78
2023-05-19T12:55:14.426Z,610.88
2023-05-19T12:57:44.469Z,673.05
2023-05-19T13:00:17.548Z,681.15
2023-05-19T13:03:00.682Z,689.28
2023-05-19T13:05:32.247Z,837.38
2023-05-19T13:08:02.696Z,711.22
2023-05-19T13:10:31.762Z,795.08
2023-05-19T13:13:01.671Z,701.63
2023-05-19T13:15:31.761Z,685.35
2023-05-19T13:20:55.473Z,689.58
2023-05-19T13:23:24.099Z,707.83
2023-05-19T13:25:52.760Z,710.72
2023-05-19T13:28:21.174Z,748.33
2023-05-19T13:30:49.795Z,714.65
2023-05-19T13:33:18.320Z,704.60
2023-05-19T13:35:46.736Z,675.50
2023-05-19T13:38:16.569Z,774.17
2023-05-19T13:40:46.194Z,756.08
2023-05-19T13:43:14.609Z,979.47
2023-05-19T13:45:44.489Z,693.33
2023-05-19T13:48:13.138Z,735.05
2023-05-19T13:50:41.759Z,721.33
2023-05-19T13:53:11.496Z,829.88
2023-05-19T13:55:41.449Z,704.83
2023-05-19T13:58:11.058Z,772.70
2023-05-19T14:00:39.745Z,660.15
2023-05-19T14:03:08.667Z,719.58
2023-05-19T14:05:37.384Z,655.85
2023-05-19T14:08:06.763Z,667.90
2023-05-19T14:10:35.529Z,659.72
2023-05-19T14:13:30.410Z,717.05
2023-05-19T14:15:54.251Z,620.20
2023-05-19T14:18:22.668Z,667.47
2023-05-19T14:20:51.155Z,717.20
2023-05-19T14:23:21.522Z,681.75
2023-05-19T14:25:49.980Z,712.85
2023-05-19T14:28:19.772Z,661.88
2023-05-19T14:30:48.627Z,672.53
2023-05-19T14:33:17.354Z,712.72
2023-05-19T14:35:45.928Z,677.47
2023-05-19T14:38:14.479Z,801.97
2023-05-19T14:40:43.182Z,879.05
2023-05-19T14:43:11.880Z,664.63
2023-05-19T14:45:42.419Z,684.90
2023-05-19T14:48:11.791Z,681.08
2023-05-19T14:50:40.661Z,683.22
2023-05-19T14:53:09.371Z,665.40
2023-05-19T14:55:37.775Z,735.97
2023-05-19T14:58:15.949Z,674.22
2023-05-19T15:00:59.512Z,678.50
2023-05-19T15:03:28.207Z,656.97
2023-05-19T15:05:56.652Z,666.85
2023-05-19T15:08:25.033Z,693.03
2023-05-19T15:10:53.950Z,617.05
2023-05-19T15:13:22.343Z,672.65
2023-05-19T15:15:52.048Z,715.53
2023-05-19T15:18:26.052Z,690.08
2023-05-19T15:20:54.608Z,674.03
2023-05-19T15:23:22.986Z,743.42
2023-05-19T15:25:53.192Z,703.55
2023-05-19T15:28:21.746Z,709.75
2023-05-19T15:30:50.215Z,735.30
2023-05-19T15:33:18.845Z,850.63
2023-05-19T15:35:51.560Z,744.70
2023-05-19T15:38:20.506Z,696.38
2023-05-19T15:40:48.948Z,694.15
2023-05-19T15:43:17.547Z,664.63
2023-05-19T15:45:46.076Z,860.95
2023-05-19T15:48:14.504Z,693.92
2023-05-19T15:50:42.900Z,680.58
2023-05-19T15:53:12.634Z,842.20
2023-05-19T15:55:41.048Z,686.17
2023-05-19T15:58:09.775Z,788.17
2023-05-19T16:00:38.139Z,751.38
2023-05-19T16:03:06.651Z,702.92
2023-05-19T16:05:35.217Z,666.50
2023-05-19T16:08:03.596Z,695.72
2023-05-19T16:10:33.832Z,756.00
2023-05-19T16:13:02.496Z,674.90
2023-05-19T16:15:30.948Z,717.80
2023-05-19T16:17:59.924Z,686.90
2023-05-19T16:20:29.844Z,844.00
2023-05-19T16:22:59.859Z,705.30
2023-05-19T16:25:28.370Z,811.85
2023-05-19T16:27:58.212Z,714.83
2023-05-19T16:30:28.006Z,720.90
2023-05-19T16:32:56.438Z,736.70
2023-05-19T16:35:25.105Z,719.95
2023-05-19T16:37:53.571Z,777.80
2023-05-19T16:40:21.991Z,762.55
2023-05-19T16:42:50.555Z,723.33
2023-05-19T16:45:20.472Z,702.00
2023-05-19T16:47:49.149Z,739.55
2023-05-19T16:50:17.821Z,720.35
2023-05-19T16:52:46.786Z,773.10
2023-05-19T16:55:19.490Z,720.97
2023-05-19T16:57:48.128Z,729.10
2023-05-19T17:00:17.417Z,726.17
2023-05-19T17:02:47.606Z,730.28
2023-05-19T17:05:16.352Z,720.17
2023-05-19T17:07:44.933Z,732.88
2023-05-19T17:10:14.565Z,718.15
2023-05-19T17:12:43.072Z,771.40
2023-05-19T17:15:12.135Z,747.40
2023-05-19T17:17:40.674Z,844.13
2023-05-19T17:20:12.130Z,717.40
2023-05-19T17:22:40.575Z,730.20
2023-05-19T17:25:10.072Z,711.95
2023-05-19T17:27:38.884Z,746.80
2023-05-19T17:30:08.829Z,772.15
2023-05-19T17:32:39.470Z,775.28
2023-05-19T17:35:10.469Z,707.53
2023-05-19T17:37:39.042Z,690.42
2023-05-19T17:40:08.870Z,707.33
2023-05-19T17:42:37.278Z,790.42
2023-05-19T17:45:07.566Z,703.35
2023-05-19T17:47:36.203Z,695.13
2023-05-19T17:50:04.883Z,698.47
2023-05-19T17:52:35.666Z,732.95
2023-05-19T17:55:04.640Z,726.50
2023-05-19T17:57:33.972Z,721.33
2023-05-19T18:00:03.841Z,854.13
2023-05-19T18:02:32.845Z,758.13
2023-05-19T18:05:01.939Z,723.50
2023-05-19T18:07:33.660Z,690.17
2023-05-19T18:10:06.552Z,715.45
2023-05-19T18:12:34.964Z,712.25
2023-05-19T18:15:03.437Z,714.53
2023-05-19T18:17:31.935Z,707.42
2023-05-19T18:20:00.910Z,937.58
2023-05-19T18:22:29.436Z,713.97
2023-05-19T18:24:58.340Z,707.50
2023-05-19T18:27:28.868Z,762.08
2023-05-19T18:29:57.445Z,697.58
2023-05-19T18:32:25.998Z,765.28
2023-05-19T18:34:54.437Z,893.75
2023-05-19T18:37:22.987Z,759.70
2023-05-19T18:39:51.329Z,833.80
2023-05-19T18:42:19.771Z,783.15
2023-05-19T18:44:50.690Z,745.67
2023-05-19T18:47:19.846Z,773.28
2023-05-19T18:49:48.268Z,742.03
2023-05-19T18:52:16.928Z,764.28
2023-05-19T18:54:46.988Z,819.42
2023-05-19T18:57:15.594Z,768.33
2023-05-19T18:59:44.246Z,739.03
2023-05-19T19:02:14.003Z,782.80
2023-05-19T19:04:42.456Z,736.90
2023-05-19T19:07:10.894Z,755.30
2023-05-19T19:09:39.589Z,763.20
2023-05-19T19:12:08.234Z,742.97
2023-05-19T19:14:37.239Z,736.38
2023-05-19T19:17:06.071Z,731.97
2023-05-19T19:19:36.065Z,733.00
2023-05-19T19:22:04.755Z,737.75
2023-05-19T19:24:33.248Z,730.42
2023-05-19T19:27:02.528Z,709.40
2023-05-19T19:29:30.964Z,704.58
2023-05-19T19:31:59.537Z,754.85
2023-05-19T19:34:28.341Z,699.13
2023-05-19T19:36:58.117Z,713.85
2023-05-19T19:39:26.642Z,751.17
2023-05-19T19:41:55.374Z,733.15
2023-05-19T19:44:23.977Z,776.67
2023-05-19T19:46:52.524Z,845.35
2023-05-19T19:49:21.053Z,745.15
2023-05-19T19:51:49.403Z,883.60
2023-05-19T19:54:19.762Z,748.22
2023-05-19T19:56:48.203Z,734.78
2023-05-19T19:59:16.888Z,737.85
2023-05-19T20:01:45.330Z,734.45
2023-05-19T20:04:15.376Z,740.92
2023-05-19T20:06:45.674Z,729.75
2023-05-19T20:09:14.069Z,751.38
2023-05-19T20:11:43.909Z,737.70
2023-05-19T20:14:12.309Z,752.45
2023-05-19T20:16:41.604Z,767.90
2023-05-19T20:19:12.031Z,760.22
2023-05-19T20:21:40.451Z,768.65
2023-05-19T20:24:08.988Z,762.63
2023-05-19T20:26:37.455Z,781.88
2023-05-19T20:29:07.395Z,773.42
2023-05-19T20:31:35.759Z,765.97
2023-05-19T20:34:04.278Z,760.20
2023-05-19T20:36:32.958Z,715.08
2023-05-19T20:39:02.332Z,761.15
2023-05-19T20:41:31.282Z,747.30
2023-05-19T20:43:59.725Z,774.80
2023-05-19T20:46:29.648Z,744.88
2023-05-19T20:48:58.137Z,757.03
2023-05-19T20:51:27.273Z,744.95
2023-05-19T20:53:55.749Z,747.92
2023-05-19T20:56:24.173Z,761.22
2023-05-19T20:58:52.569Z,715.15
2023-05-19T21:01:21.012Z,697.00
2023-05-19T21:03:51.139Z,739.78
2023-05-19T21:06:19.588Z,713.17
2023-05-19T21:08:48.039Z,777.13
2023-05-19T21:11:16.650Z,674.67
2023-05-19T21:13:45.103Z,746.30
2023-05-19T21:16:13.511Z,749.13
2023-05-19T21:18:41.945Z,728.30
2023-05-19T21:21:11.890Z,712.40
2023-05-19T21:23:40.252Z,739.53
2023-05-19T21:26:08.638Z,745.05
2023-05-19T21:28:37.047Z,728.05
2023-05-19T21:31:06.054Z,744.75
2023-05-19T21:33:34.667Z,712.58
2023-05-19T21:36:03.098Z,770.60
2023-05-19T21:38:32.894Z,735.03
2023-05-19T21:41:02.174Z,732.50
2023-05-19T21:43:30.559Z,687.65
2023-05-19T21:45:59.102Z,754.58
2023-05-19T21:48:27.592Z,746.65
2023-05-19T21:50:57.351Z,756.50
2023-05-19T21:53:26.171Z,702.88
2023-05-19T21:55:56.194Z,692.88
2023-05-19T21:58:25.158Z,864.72
2023-05-19T22:00:54.408Z,766.35
2023-05-19T22:03:23.679Z,735.38
2023-05-19T22:05:53.044Z,745.08
2023-05-19T22:08:22.362Z,713.88
2023-05-19T22:10:51.853Z,744.53
2023-05-19T22:13:22.117Z,741.92
2023-05-19T22:15:50.915Z,725.28
2023-05-19T22:18:19.353Z,711.83
2023-05-19T22:20:48.070Z,711.47
2023-05-19T22:23:16.719Z,745.78
2023-05-19T22:25:45.076Z,727.10
2023-05-19T22:28:13.497Z,725.30
2023-05-19T22:30:44.039Z,734.33
2023-05-19T22:33:13.109Z,731.72
2023-05-19T22:35:41.606Z,726.35
2023-05-19T22:38:10.709Z,729.50
2023-05-19T22:40:39.591Z,725.75
2023-05-19T22:43:08.121Z,743.88
2023-05-19T22:45:37.248Z,735.78
2023-05-19T22:48:07.558Z,719.42
2023-05-19T22:50:36.064Z,721.28
2023-05-19T22:53:04.434Z,709.50
2023-05-19T22:55:33.037Z,711.72
2023-05-19T22:58:01.610Z,713.20
2023-05-19T23:00:30.048Z,750.25
2023-05-19T23:02:58.900Z,706.45
2023-05-19T23:05:28.706Z,732.13
2023-05-19T23:07:57.098Z,723.15
2023-05-19T23:10:25.575Z,713.67
2023-05-19T23:12:53.955Z,735.42
2023-05-19T23:15:22.375Z,727.88
2023-05-19T23:17:51.070Z,706.38
2023-05-19T23:20:19.595Z,739.05
2023-05-19T23:22:49.381Z,744.22
2023-05-19T23:25:17.802Z,733.00
2023-05-19T23:27:46.598Z,735.88
2023-05-19T23:30:15.001Z,715.88
2023-05-19T23:32:43.426Z,703.95
2023-05-19T23:35:13.417Z,718.92
2023-05-19T23:37:41.956Z,705.55
2023-05-19T23:40:12.461Z,733.38
2023-05-19T23:42:41.513Z,724.53
2023-05-19T23:45:10.685Z,715.47
2023-05-19T23:47:39.213Z,712.55
2023-05-19T23:50:08.217Z,719.83
2023-05-19T23:52:36.660Z,710.65
2023-05-19T23:55:05.852Z,731.38
2023-05-19T23:57:35.594Z,704.08
